sensor_id;sensor_type;location;lat;lon;timestamp;P1;durP1;ratioP1;P2;durP2;ratioP2
22223;SDS011;11281;52.194;21.006;2023-07-22T00:02:19;6.32;;;4.47;;
22223;SDS011;11281;52.194;21.006;2023-07-22T00:06:21;4.75;;;4.20;;
22223;SDS011;11281;52.194;21.006;2023-07-22T00:10:23;4.93;;;4.43;;
22223;SDS011;11281;52.194;21.006;2023-07-22T00:14:25;6.97;;;4.15;;
22223;SDS011;11281;52.194;21.006;2023-07-22T00:18:27;6.00;;;3.92;;
22223;SDS011;11281;52.194;21.006;2023-07-22T00:22:29;5.75;;;4.22;;
22223;SDS011;11281;52.194;21.006;2023-07-22T00:26:31;5.18;;;4.43;;
22223;SDS011;11281;52.194;21.006;2023-07-22T00:30:33;7.97;;;4.68;;
22223;SDS011;11281;52.194;21.006;2023-07-22T00:34:35;5.35;;;4.47;;
22223;SDS011;11281;52.194;21.006;2023-07-22T00:38:40;7.78;;;5.25;;
22223;SDS011;11281;52.194;21.006;2023-07-22T00:42:41;7.30;;;4.75;;
22223;SDS011;11281;52.194;21.006;2023-07-22T00:46:44;5.63;;;5.10;;
22223;SDS011;11281;52.194;21.006;2023-07-22T00:50:45;6.63;;;5.32;;
22223;SDS011;11281;52.194;21.006;2023-07-22T00:54:47;9.18;;;5.18;;
22223;SDS011;11281;52.194;21.006;2023-07-22T00:58:49;6.60;;;5.65;;
22223;SDS011;11281;52.194;21.006;2023-07-22T01:02:51;8.48;;;5.35;;
22223;SDS011;11281;52.194;21.006;2023-07-22T01:06:53;7.28;;;5.65;;
22223;SDS011;11281;52.194;21.006;2023-07-22T01:10:56;6.72;;;5.13;;
22223;SDS011;11281;52.194;21.006;2023-07-22T01:14:58;11.27;;;5.85;;
22223;SDS011;11281;52.194;21.006;2023-07-22T01:18:59;6.60;;;4.93;;
22223;SDS011;11281;52.194;21.006;2023-07-22T01:23:01;7.50;;;5.90;;
22223;SDS011;11281;52.194;21.006;2023-07-22T01:27:03;8.93;;;6.50;;
22223;SDS011;11281;52.194;21.006;2023-07-22T01:31:09;8.18;;;6.10;;
22223;SDS011;11281;52.194;21.006;2023-07-22T01:35:11;8.80;;;6.50;;
22223;SDS011;11281;52.194;21.006;2023-07-22T01:39:12;6.53;;;5.50;;
22223;SDS011;11281;52.194;21.006;2023-07-22T01:43:16;8.75;;;5.47;;
22223;SDS011;11281;52.194;21.006;2023-07-22T01:47:18;9.00;;;5.38;;
22223;SDS011;11281;52.194;21.006;2023-07-22T01:51:19;7.32;;;5.93;;
22223;SDS011;11281;52.194;21.006;2023-07-22T01:55:21;7.90;;;5.70;;
22223;SDS011;11281;52.194;21.006;2023-07-22T01:59:23;10.13;;;6.35;;
22223;SDS011;11281;52.194;21.006;2023-07-22T02:03:24;8.25;;;5.90;;
22223;SDS011;11281;52.194;21.006;2023-07-22T02:07:26;6.25;;;5.28;;
22223;SDS011;11281;52.194;21.006;2023-07-22T02:11:29;6.85;;;5.28;;
22223;SDS011;11281;52.194;21.006;2023-07-22T02:15:34;7.22;;;6.25;;
22223;SDS011;11281;52.194;21.006;2023-07-22T02:19:36;7.18;;;5.72;;
22223;SDS011;11281;52.194;21.006;2023-07-22T02:23:38;6.40;;;5.68;;
22223;SDS011;11281;52.194;21.006;2023-07-22T02:27:40;8.13;;;5.50;;
22223;SDS011;11281;52.194;21.006;2023-07-22T02:31:41;8.52;;;5.50;;
22223;SDS011;11281;52.194;21.006;2023-07-22T02:35:43;5.40;;;4.88;;
22223;SDS011;11281;52.194;21.006;2023-07-22T02:39:45;8.15;;;5.95;;
22223;SDS011;11281;52.194;21.006;2023-07-22T02:43:46;6.07;;;5.15;;
22223;SDS011;11281;52.194;21.006;2023-07-22T02:47:48;5.97;;;5.10;;
22223;SDS011;11281;52.194;21.006;2023-07-22T02:51:50;8.05;;;6.32;;
22223;SDS011;11281;52.194;21.006;2023-07-22T02:55:52;7.70;;;6.28;;
22223;SDS011;11281;52.194;21.006;2023-07-22T02:59:54;7.35;;;5.50;;
22223;SDS011;11281;52.194;21.006;2023-07-22T03:03:57;5.97;;;5.00;;
22223;SDS011;11281;52.194;21.006;2023-07-22T03:07:59;7.65;;;5.80;;
22223;SDS011;11281;52.194;21.006;2023-07-22T03:12:00;7.43;;;5.85;;
22223;SDS011;11281;52.194;21.006;2023-07-22T03:16:02;8.50;;;5.50;;
22223;SDS011;11281;52.194;21.006;2023-07-22T03:20:05;6.63;;;5.80;;
22223;SDS011;11281;52.194;21.006;2023-07-22T03:24:14;7.70;;;5.28;;
22223;SDS011;11281;52.194;21.006;2023-07-22T03:28:16;7.20;;;5.70;;
22223;SDS011;11281;52.194;21.006;2023-07-22T03:32:18;7.15;;;5.90;;
22223;SDS011;11281;52.194;21.006;2023-07-22T03:36:19;7.43;;;6.65;;
22223;SDS011;11281;52.194;21.006;2023-07-22T03:40:21;7.38;;;6.03;;
22223;SDS011;11281;52.194;21.006;2023-07-22T03:44:31;13.43;;;6.43;;
22223;SDS011;11281;52.194;21.006;2023-07-22T03:48:34;9.63;;;7.07;;
22223;SDS011;11281;52.194;21.006;2023-07-22T03:52:35;10.93;;;6.80;;
22223;SDS011;11281;52.194;21.006;2023-07-22T03:56:39;9.57;;;6.53;;
22223;SDS011;11281;52.194;21.006;2023-07-22T04:00:41;8.68;;;6.75;;
22223;SDS011;11281;52.194;21.006;2023-07-22T04:04:43;8.25;;;6.65;;
22223;SDS011;11281;52.194;21.006;2023-07-22T04:08:45;9.52;;;7.22;;
22223;SDS011;11281;52.194;21.006;2023-07-22T04:12:47;11.07;;;7.10;;
22223;SDS011;11281;52.194;21.006;2023-07-22T04:16:49;9.48;;;7.20;;
22223;SDS011;11281;52.194;21.006;2023-07-22T04:20:55;10.48;;;7.70;;
22223;SDS011;11281;52.194;21.006;2023-07-22T04:24:58;10.00;;;7.32;;
22223;SDS011;11281;52.194;21.006;2023-07-22T04:28:59;12.40;;;7.30;;
22223;SDS011;11281;52.194;21.006;2023-07-22T04:33:01;8.20;;;6.82;;
22223;SDS011;11281;52.194;21.006;2023-07-22T04:37:03;10.63;;;7.10;;
22223;SDS011;11281;52.194;21.006;2023-07-22T04:41:05;11.05;;;7.05;;
22223;SDS011;11281;52.194;21.006;2023-07-22T04:45:07;10.25;;;7.22;;
22223;SDS011;11281;52.194;21.006;2023-07-22T04:49:14;8.90;;;6.85;;
22223;SDS011;11281;52.194;21.006;2023-07-22T04:53:19;8.18;;;5.97;;
22223;SDS011;11281;52.194;21.006;2023-07-22T04:57:23;9.45;;;5.38;;
22223;SDS011;11281;52.194;21.006;2023-07-22T05:01:25;9.13;;;5.30;;
22223;SDS011;11281;52.194;21.006;2023-07-22T05:05:26;7.70;;;5.15;;
22223;SDS011;11281;52.194;21.006;2023-07-22T05:09:28;6.15;;;4.68;;
22223;SDS011;11281;52.194;21.006;2023-07-22T05:13:30;6.22;;;4.28;;
22223;SDS011;11281;52.194;21.006;2023-07-22T05:17:33;5.90;;;4.88;;
22223;SDS011;11281;52.194;21.006;2023-07-22T05:21:35;5.55;;;4.57;;
22223;SDS011;11281;52.194;21.006;2023-07-22T05:25:36;6.65;;;4.43;;
22223;SDS011;11281;52.194;21.006;2023-07-22T05:29:38;5.82;;;4.10;;
22223;SDS011;11281;52.194;21.006;2023-07-22T05:33:39;5.50;;;4.43;;
22223;SDS011;11281;52.194;21.006;2023-07-22T05:37:41;5.13;;;4.10;;
22223;SDS011;11281;52.194;21.006;2023-07-22T05:41:43;6.00;;;4.38;;
22223;SDS011;11281;52.194;21.006;2023-07-22T05:45:44;5.78;;;4.43;;
22223;SDS011;11281;52.194;21.006;2023-07-22T05:49:46;5.53;;;3.67;;
22223;SDS011;11281;52.194;21.006;2023-07-22T05:53:48;6.75;;;4.07;;
22223;SDS011;11281;52.194;21.006;2023-07-22T05:57:49;6.07;;;4.43;;
22223;SDS011;11281;52.194;21.006;2023-07-22T06:01:51;7.32;;;4.65;;
22223;SDS011;11281;52.194;21.006;2023-07-22T06:05:52;7.53;;;4.68;;
22223;SDS011;11281;52.194;21.006;2023-07-22T06:09:54;7.53;;;5.00;;
22223;SDS011;11281;52.194;21.006;2023-07-22T06:13:56;10.15;;;5.13;;
22223;SDS011;11281;52.194;21.006;2023-07-22T06:17:57;6.32;;;4.82;;
22223;SDS011;11281;52.194;21.006;2023-07-22T06:21:59;5.78;;;4.18;;
22223;SDS011;11281;52.194;21.006;2023-07-22T06:26:01;5.47;;;4.28;;
22223;SDS011;11281;52.194;21.006;2023-07-22T06:30:03;7.03;;;4.43;;
22223;SDS011;11281;52.194;21.006;2023-07-22T06:34:05;5.78;;;4.85;;
22223;SDS011;11281;52.194;21.006;2023-07-22T06:38:07;5.53;;;4.40;;
22223;SDS011;11281;52.194;21.006;2023-07-22T06:42:09;5.40;;;4.63;;
22223;SDS011;11281;52.194;21.006;2023-07-22T06:46:11;6.50;;;4.70;;
22223;SDS011;11281;52.194;21.006;2023-07-22T06:50:12;5.80;;;4.30;;
22223;SDS011;11281;52.194;21.006;2023-07-22T06:54:15;5.15;;;4.20;;
22223;SDS011;11281;52.194;21.006;2023-07-22T06:58:16;3.50;;;3.20;;
22223;SDS011;11281;52.194;21.006;2023-07-22T07:02:19;3.40;;;3.10;;
22223;SDS011;11281;52.194;21.006;2023-07-22T07:06:20;5.32;;;2.65;;
22223;SDS011;11281;52.194;21.006;2023-07-22T07:10:22;2.65;;;2.45;;
22223;SDS011;11281;52.194;21.006;2023-07-22T07:14:24;4.47;;;3.38;;
22223;SDS011;11281;52.194;21.006;2023-07-22T07:18:26;2.80;;;2.50;;
22223;SDS011;11281;52.194;21.006;2023-07-22T07:22:28;3.38;;;2.60;;
22223;SDS011;11281;52.194;21.006;2023-07-22T07:26:30;4.93;;;2.70;;
22223;SDS011;11281;52.194;21.006;2023-07-22T07:30:32;4.03;;;2.50;;
22223;SDS011;11281;52.194;21.006;2023-07-22T07:34:34;3.22;;;2.35;;
22223;SDS011;11281;52.194;21.006;2023-07-22T07:38:36;5.03;;;2.63;;
22223;SDS011;11281;52.194;21.006;2023-07-22T07:42:38;3.15;;;2.28;;
22223;SDS011;11281;52.194;21.006;2023-07-22T07:46:40;2.97;;;2.42;;
22223;SDS011;11281;52.194;21.006;2023-07-22T07:50:42;3.72;;;2.55;;
22223;SDS011;11281;52.194;21.006;2023-07-22T07:54:44;2.58;;;2.30;;
22223;SDS011;11281;52.194;21.006;2023-07-22T07:58:46;2.95;;;2.28;;
22223;SDS011;11281;52.194;21.006;2023-07-22T08:02:49;4.47;;;2.47;;
22223;SDS011;11281;52.194;21.006;2023-07-22T08:06:51;3.15;;;2.55;;
22223;SDS011;11281;52.194;21.006;2023-07-22T08:11:02;4.20;;;2.70;;
22223;SDS011;11281;52.194;21.006;2023-07-22T08:15:08;2.90;;;2.60;;
22223;SDS011;11281;52.194;21.006;2023-07-22T08:19:10;5.03;;;3.10;;
22223;SDS011;11281;52.194;21.006;2023-07-22T08:23:12;3.45;;;2.70;;
22223;SDS011;11281;52.194;21.006;2023-07-22T08:27:15;3.65;;;2.70;;
22223;SDS011;11281;52.194;21.006;2023-07-22T08:31:17;2.83;;;2.63;;
22223;SDS011;11281;52.194;21.006;2023-07-22T08:35:18;4.70;;;3.00;;
22223;SDS011;11281;52.194;21.006;2023-07-22T08:39:20;4.65;;;2.75;;
22223;SDS011;11281;52.194;21.006;2023-07-22T08:43:21;4.97;;;2.88;;
22223;SDS011;11281;52.194;21.006;2023-07-22T08:47:24;3.97;;;2.38;;
22223;SDS011;11281;52.194;21.006;2023-07-22T08:51:26;3.00;;;2.50;;
22223;SDS011;11281;52.194;21.006;2023-07-22T08:55:29;6.90;;;3.15;;
22223;SDS011;11281;52.194;21.006;2023-07-22T08:59:30;3.60;;;3.00;;
22223;SDS011;11281;52.194;21.006;2023-07-22T09:03:33;4.25;;;3.30;;
22223;SDS011;11281;52.194;21.006;2023-07-22T09:07:35;7.13;;;3.35;;
22223;SDS011;11281;52.194;21.006;2023-07-22T09:11:38;4.28;;;3.05;;
22223;SDS011;11281;52.194;21.006;2023-07-22T09:15:40;3.67;;;3.00;;
22223;SDS011;11281;52.194;21.006;2023-07-22T09:19:42;4.45;;;2.95;;
22223;SDS011;11281;52.194;21.006;2023-07-22T09:23:44;2.17;;;1.58;;
22223;SDS011;11281;52.194;21.006;2023-07-22T09:27:46;1.85;;;1.48;;
22223;SDS011;11281;52.194;21.006;2023-07-22T09:31:56;1.92;;;1.65;;
22223;SDS011;11281;52.194;21.006;2023-07-22T09:35:58;2.28;;;1.33;;
22223;SDS011;11281;52.194;21.006;2023-07-22T09:40:00;2.65;;;1.35;;
22223;SDS011;11281;52.194;21.006;2023-07-22T09:44:02;1.60;;;1.50;;
22223;SDS011;11281;52.194;21.006;2023-07-22T09:48:04;1.90;;;1.35;;
22223;SDS011;11281;52.194;21.006;2023-07-22T09:52:09;2.08;;;1.20;;
22223;SDS011;11281;52.194;21.006;2023-07-22T09:56:14;1.77;;;1.38;;
22223;SDS011;11281;52.194;21.006;2023-07-22T10:00:16;1.85;;;1.38;;
22223;SDS011;11281;52.194;21.006;2023-07-22T10:04:21;1.10;;;1.00;;
22223;SDS011;11281;52.194;21.006;2023-07-22T10:08:25;2.85;;;1.33;;
22223;SDS011;11281;52.194;21.006;2023-07-22T10:12:30;5.55;;;1.60;;
22223;SDS011;11281;52.194;21.006;2023-07-22T10:16:33;1.95;;;1.20;;
22223;SDS011;11281;52.194;21.006;2023-07-22T10:20:37;2.20;;;1.27;;
22223;SDS011;11281;52.194;21.006;2023-07-22T10:24:41;2.63;;;1.65;;
22223;SDS011;11281;52.194;21.006;2023-07-22T10:28:45;2.30;;;1.30;;
22223;SDS011;11281;52.194;21.006;2023-07-22T10:32:52;1.77;;;1.33;;
22223;SDS011;11281;52.194;21.006;2023-07-22T10:36:55;1.50;;;1.10;;
22223;SDS011;11281;52.194;21.006;2023-07-22T10:40:59;1.83;;;1.02;;
22223;SDS011;11281;52.194;21.006;2023-07-22T10:45:00;2.30;;;1.60;;
22223;SDS011;11281;52.194;21.006;2023-07-22T10:49:09;2.28;;;1.83;;
22223;SDS011;11281;52.194;21.006;2023-07-22T10:53:13;2.20;;;1.52;;
22223;SDS011;11281;52.194;21.006;2023-07-22T10:57:27;1.65;;;1.52;;
22223;SDS011;11281;52.194;21.006;2023-07-22T11:01:33;1.60;;;1.50;;
22223;SDS011;11281;52.194;21.006;2023-07-22T11:05:49;2.57;;;1.60;;
22223;SDS011;11281;52.194;21.006;2023-07-22T11:09:53;1.17;;;1.00;;
22223;SDS011;11281;52.194;21.006;2023-07-22T11:13:57;1.48;;;1.38;;
22223;SDS011;11281;52.194;21.006;2023-07-22T11:18:21;1.17;;;1.08;;
22223;SDS011;11281;52.194;21.006;2023-07-22T11:22:23;1.48;;;1.25;;
22223;SDS011;11281;52.194;21.006;2023-07-22T11:26:25;3.35;;;1.30;;
22223;SDS011;11281;52.194;21.006;2023-07-22T11:30:27;1.77;;;1.05;;
22223;SDS011;11281;52.194;21.006;2023-07-22T11:34:28;2.25;;;1.17;;
22223;SDS011;11281;52.194;21.006;2023-07-22T11:38:30;1.52;;;1.23;;
22223;SDS011;11281;52.194;21.006;2023-07-22T11:42:33;2.17;;;1.20;;
22223;SDS011;11281;52.194;21.006;2023-07-22T11:46:35;3.03;;;1.30;;
22223;SDS011;11281;52.194;21.006;2023-07-22T11:50:48;1.77;;;1.33;;
22223;SDS011;11281;52.194;21.006;2023-07-22T11:54:50;3.22;;;1.10;;
22223;SDS011;11281;52.194;21.006;2023-07-22T11:58:53;1.35;;;1.25;;
22223;SDS011;11281;52.194;21.006;2023-07-22T12:02:56;2.55;;;1.60;;
22223;SDS011;11281;52.194;21.006;2023-07-22T12:07:00;2.15;;;1.52;;
22223;SDS011;11281;52.194;21.006;2023-07-22T12:11:02;1.92;;;1.40;;
22223;SDS011;11281;52.194;21.006;2023-07-22T12:19:14;2.10;;;1.25;;
22223;SDS011;11281;52.194;21.006;2023-07-22T12:23:15;3.30;;;1.40;;
22223;SDS011;11281;52.194;21.006;2023-07-22T12:27:17;1.23;;;1.13;;
22223;SDS011;11281;52.194;21.006;2023-07-22T12:31:18;1.63;;;1.20;;
22223;SDS011;11281;52.194;21.006;2023-07-22T12:35:20;3.13;;;1.30;;
22223;SDS011;11281;52.194;21.006;2023-07-22T12:39:22;2.53;;;1.60;;
22223;SDS011;11281;52.194;21.006;2023-07-22T12:43:23;1.63;;;1.08;;
22223;SDS011;11281;52.194;21.006;2023-07-22T12:47:25;1.20;;;1.10;;
22223;SDS011;11281;52.194;21.006;2023-07-22T12:51:27;1.90;;;1.45;;
22223;SDS011;11281;52.194;21.006;2023-07-22T12:55:29;1.75;;;1.63;;
22223;SDS011;11281;52.194;21.006;2023-07-22T12:59:31;2.25;;;1.80;;
22223;SDS011;11281;52.194;21.006;2023-07-22T13:03:33;3.13;;;2.20;;
22223;SDS011;11281;52.194;21.006;2023-07-22T13:07:34;3.47;;;1.42;;
22223;SDS011;11281;52.194;21.006;2023-07-22T13:11:37;6.00;;;3.70;;
22223;SDS011;11281;52.194;21.006;2023-07-22T13:15:38;2.00;;;1.83;;
22223;SDS011;11281;52.194;21.006;2023-07-22T13:19:40;9.32;;;4.32;;
22223;SDS011;11281;52.194;21.006;2023-07-22T13:23:41;1.95;;;1.60;;
22223;SDS011;11281;52.194;21.006;2023-07-22T13:27:43;2.95;;;1.02;;
22223;SDS011;11281;52.194;21.006;2023-07-22T13:31:45;1.10;;;1.00;;
22223;SDS011;11281;52.194;21.006;2023-07-22T13:35:46;1.17;;;1.08;;
22223;SDS011;11281;52.194;21.006;2023-07-22T13:39:48;1.77;;;1.08;;
22223;SDS011;11281;52.194;21.006;2023-07-22T13:43:50;4.25;;;1.67;;
22223;SDS011;11281;52.194;21.006;2023-07-22T13:47:52;1.40;;;1.30;;
22223;SDS011;11281;52.194;21.006;2023-07-22T13:51:53;0.80;;;0.80;;
22223;SDS011;11281;52.194;21.006;2023-07-22T13:55:55;1.42;;;1.30;;
22223;SDS011;11281;52.194;21.006;2023-07-22T13:59:57;3.72;;;1.98;;
22223;SDS011;11281;52.194;21.006;2023-07-22T14:03:59;8.13;;;4.25;;
22223;SDS011;11281;52.194;21.006;2023-07-22T14:08:00;6.93;;;3.22;;
22223;SDS011;11281;52.194;21.006;2023-07-22T14:12:02;4.20;;;2.60;;
22223;SDS011;11281;52.194;21.006;2023-07-22T14:16:04;4.00;;;1.85;;
22223;SDS011;11281;52.194;21.006;2023-07-22T14:20:06;3.40;;;2.10;;
22223;SDS011;11281;52.194;21.006;2023-07-22T14:24:08;1.65;;;1.52;;
22223;SDS011;11281;52.194;21.006;2023-07-22T14:28:10;2.88;;;2.08;;
22223;SDS011;11281;52.194;21.006;2023-07-22T14:32:12;1.63;;;1.50;;
22223;SDS011;11281;52.194;21.006;2023-07-22T14:36:13;3.40;;;1.70;;
22223;SDS011;11281;52.194;21.006;2023-07-22T14:40:15;3.65;;;2.15;;
22223;SDS011;11281;52.194;21.006;2023-07-22T14:44:18;3.08;;;2.53;;
22223;SDS011;11281;52.194;21.006;2023-07-22T14:48:20;2.03;;;1.83;;
22223;SDS011;11281;52.194;21.006;2023-07-22T14:52:21;4.57;;;1.98;;
22223;SDS011;11281;52.194;21.006;2023-07-22T14:56:23;2.88;;;1.73;;
22223;SDS011;11281;52.194;21.006;2023-07-22T15:00:25;1.73;;;1.63;;
22223;SDS011;11281;52.194;21.006;2023-07-22T15:04:27;2.25;;;1.70;;
22223;SDS011;11281;52.194;21.006;2023-07-22T15:08:28;2.50;;;1.50;;
22223;SDS011;11281;52.194;21.006;2023-07-22T15:12:31;3.25;;;1.67;;
22223;SDS011;11281;52.194;21.006;2023-07-22T15:16:33;1.42;;;1.30;;
22223;SDS011;11281;52.194;21.006;2023-07-22T15:20:35;2.55;;;1.52;;
22223;SDS011;11281;52.194;21.006;2023-07-22T15:24:37;1.60;;;1.50;;
22223;SDS011;11281;52.194;21.006;2023-07-22T15:28:38;2.00;;;1.77;;
22223;SDS011;11281;52.194;21.006;2023-07-22T15:32:43;1.65;;;1.45;;
22223;SDS011;11281;52.194;21.006;2023-07-22T15:36:45;3.28;;;1.27;;
22223;SDS011;11281;52.194;21.006;2023-07-22T15:40:46;2.13;;;1.52;;
22223;SDS011;11281;52.194;21.006;2023-07-22T15:44:49;2.63;;;1.67;;
22223;SDS011;11281;52.194;21.006;2023-07-22T15:48:50;2.33;;;1.55;;
22223;SDS011;11281;52.194;21.006;2023-07-22T15:52:52;2.10;;;1.63;;
22223;SDS011;11281;52.194;21.006;2023-07-22T15:56:54;2.40;;;1.67;;
22223;SDS011;11281;52.194;21.006;2023-07-22T16:00:55;3.50;;;1.70;;
22223;SDS011;11281;52.194;21.006;2023-07-22T16:04:57;8.32;;;2.17;;
22223;SDS011;11281;52.194;21.006;2023-07-22T16:09:00;2.22;;;1.58;;
22223;SDS011;11281;52.194;21.006;2023-07-22T16:13:01;2.33;;;1.73;;
22223;SDS011;11281;52.194;21.006;2023-07-22T16:17:03;2.05;;;1.67;;
22223;SDS011;11281;52.194;21.006;2023-07-22T16:21:05;1.75;;;1.65;;
22223;SDS011;11281;52.194;21.006;2023-07-22T16:25:08;1.90;;;1.63;;
22223;SDS011;11281;52.194;21.006;2023-07-22T16:29:10;2.17;;;1.48;;
22223;SDS011;11281;52.194;21.006;2023-07-22T16:33:12;1.98;;;1.55;;
22223;SDS011;11281;52.194;21.006;2023-07-22T16:37:14;1.45;;;1.35;;
22223;SDS011;11281;52.194;21.006;2023-07-22T16:41:15;1.55;;;1.30;;
22223;SDS011;11281;52.194;21.006;2023-07-22T16:45:17;1.63;;;1.45;;
22223;SDS011;11281;52.194;21.006;2023-07-22T16:49:18;1.77;;;1.40;;
22223;SDS011;11281;52.194;21.006;2023-07-22T16:53:20;1.95;;;1.45;;
22223;SDS011;11281;52.194;21.006;2023-07-22T16:57:21;4.70;;;1.45;;
22223;SDS011;11281;52.194;21.006;2023-07-22T17:01:23;1.40;;;1.30;;
22223;SDS011;11281;52.194;21.006;2023-07-22T17:05:25;1.60;;;1.50;;
22223;SDS011;11281;52.194;21.006;2023-07-22T17:09:26;2.92;;;1.50;;
22223;SDS011;11281;52.194;21.006;2023-07-22T17:13:28;2.13;;;1.73;;
22223;SDS011;11281;52.194;21.006;2023-07-22T17:17:30;1.75;;;1.30;;
22223;SDS011;11281;52.194;21.006;2023-07-22T17:21:32;2.08;;;1.40;;
22223;SDS011;11281;52.194;21.006;2023-07-22T17:25:33;2.22;;;1.75;;
22223;SDS011;11281;52.194;21.006;2023-07-22T17:29:35;1.73;;;1.40;;
22223;SDS011;11281;52.194;21.006;2023-07-22T17:33:37;2.33;;;1.45;;
22223;SDS011;11281;52.194;21.006;2023-07-22T17:37:39;2.67;;;1.52;;
22223;SDS011;11281;52.194;21.006;2023-07-22T17:41:40;1.88;;;1.52;;
22223;SDS011;11281;52.194;21.006;2023-07-22T17:45:42;5.00;;;1.65;;
22223;SDS011;11281;52.194;21.006;2023-07-22T17:49:44;1.50;;;1.33;;
22223;SDS011;11281;52.194;21.006;2023-07-22T17:53:46;2.15;;;1.63;;
22223;SDS011;11281;52.194;21.006;2023-07-22T17:57:48;2.90;;;1.52;;
22223;SDS011;11281;52.194;21.006;2023-07-22T18:01:49;1.75;;;1.15;;
22223;SDS011;11281;52.194;21.006;2023-07-22T18:05:51;2.15;;;1.55;;
22223;SDS011;11281;52.194;21.006;2023-07-22T18:09:52;1.45;;;1.35;;
22223;SDS011;11281;52.194;21.006;2023-07-22T18:13:54;3.20;;;1.58;;
22223;SDS011;11281;52.194;21.006;2023-07-22T18:17:56;2.75;;;1.50;;
22223;SDS011;11281;52.194;21.006;2023-07-22T18:21:57;3.13;;;1.55;;
22223;SDS011;11281;52.194;21.006;2023-07-22T18:25:59;2.20;;;1.70;;
22223;SDS011;11281;52.194;21.006;2023-07-22T18:30:01;4.05;;;2.03;;
22223;SDS011;11281;52.194;21.006;2023-07-22T18:34:03;3.20;;;2.20;;
22223;SDS011;11281;52.194;21.006;2023-07-22T18:38:05;4.10;;;2.35;;
22223;SDS011;11281;52.194;21.006;2023-07-22T18:42:07;4.40;;;2.45;;
22223;SDS011;11281;52.194;21.006;2023-07-22T18:46:12;4.00;;;2.20;;
22223;SDS011;11281;52.194;21.006;2023-07-22T18:50:19;3.45;;;2.28;;
22223;SDS011;11281;52.194;21.006;2023-07-22T18:54:21;3.25;;;1.60;;
22223;SDS011;11281;52.194;21.006;2023-07-22T18:58:22;3.80;;;2.10;;
22223;SDS011;11281;52.194;21.006;2023-07-22T19:02:25;5.00;;;1.70;;
22223;SDS011;11281;52.194;21.006;2023-07-22T19:06:26;3.10;;;1.98;;
22223;SDS011;11281;52.194;21.006;2023-07-22T19:10:28;2.97;;;2.05;;
22223;SDS011;11281;52.194;21.006;2023-07-22T19:14:30;2.28;;;2.00;;
22223;SDS011;11281;52.194;21.006;2023-07-22T19:18:31;3.83;;;1.85;;
22223;SDS011;11281;52.194;21.006;2023-07-22T19:22:33;3.78;;;1.73;;
22223;SDS011;11281;52.194;21.006;2023-07-22T19:26:34;3.38;;;2.05;;
22223;SDS011;11281;52.194;21.006;2023-07-22T19:30:39;2.00;;;1.80;;
22223;SDS011;11281;52.194;21.006;2023-07-22T19:34:41;3.85;;;2.28;;
22223;SDS011;11281;52.194;21.006;2023-07-22T19:38:42;5.07;;;2.60;;
22223;SDS011;11281;52.194;21.006;2023-07-22T19:42:44;2.30;;;1.85;;
22223;SDS011;11281;52.194;21.006;2023-07-22T19:46:46;3.85;;;2.83;;
22223;SDS011;11281;52.194;21.006;2023-07-22T19:50:47;4.15;;;2.38;;
22223;SDS011;11281;52.194;21.006;2023-07-22T19:54:56;2.80;;;2.10;;
22223;SDS011;11281;52.194;21.006;2023-07-22T19:58:58;4.85;;;2.53;;
22223;SDS011;11281;52.194;21.006;2023-07-22T20:03:00;3.65;;;2.30;;
22223;SDS011;11281;52.194;21.006;2023-07-22T20:07:02;3.30;;;2.22;;
22223;SDS011;11281;52.194;21.006;2023-07-22T20:11:04;3.78;;;2.38;;
22223;SDS011;11281;52.194;21.006;2023-07-22T20:15:09;3.85;;;2.40;;
22223;SDS011;11281;52.194;21.006;2023-07-22T20:19:10;2.55;;;2.08;;
22223;SDS011;11281;52.194;21.006;2023-07-22T20:23:12;2.72;;;2.53;;
22223;SDS011;11281;52.194;21.006;2023-07-22T20:27:13;4.55;;;2.75;;
22223;SDS011;11281;52.194;21.006;2023-07-22T20:31:17;3.55;;;2.55;;
22223;SDS011;11281;52.194;21.006;2023-07-22T20:35:19;2.90;;;2.40;;
22223;SDS011;11281;52.194;21.006;2023-07-22T20:39:20;3.50;;;2.83;;
22223;SDS011;11281;52.194;21.006;2023-07-22T20:43:22;3.08;;;2.50;;
22223;SDS011;11281;52.194;21.006;2023-07-22T20:47:23;4.97;;;2.80;;
22223;SDS011;11281;52.194;21.006;2023-07-22T20:51:25;8.73;;;3.05;;
22223;SDS011;11281;52.194;21.006;2023-07-22T20:55:27;5.63;;;3.03;;
22223;SDS011;11281;52.194;21.006;2023-07-22T20:59:29;4.43;;;3.17;;
22223;SDS011;11281;52.194;21.006;2023-07-22T21:03:31;5.25;;;3.20;;
22223;SDS011;11281;52.194;21.006;2023-07-22T21:07:33;5.50;;;3.50;;
22223;SDS011;11281;52.194;21.006;2023-07-22T21:11:35;3.92;;;2.88;;
22223;SDS011;11281;52.194;21.006;2023-07-22T21:15:37;6.53;;;3.42;;
22223;SDS011;11281;52.194;21.006;2023-07-22T21:19:39;7.63;;;3.05;;
22223;SDS011;11281;52.194;21.006;2023-07-22T21:23:41;3.75;;;2.70;;
22223;SDS011;11281;52.194;21.006;2023-07-22T21:27:42;5.85;;;3.08;;
22223;SDS011;11281;52.194;21.006;2023-07-22T21:31:44;4.40;;;2.90;;
22223;SDS011;11281;52.194;21.006;2023-07-22T21:35:46;5.32;;;2.80;;
22223;SDS011;11281;52.194;21.006;2023-07-22T21:39:48;4.93;;;3.30;;
22223;SDS011;11281;52.194;21.006;2023-07-22T21:43:49;7.50;;;3.42;;
22223;SDS011;11281;52.194;21.006;2023-07-22T21:47:51;6.15;;;3.33;;
22223;SDS011;11281;52.194;21.006;2023-07-22T21:51:53;3.40;;;3.10;;
22223;SDS011;11281;52.194;21.006;2023-07-22T21:55:54;6.03;;;2.90;;
22223;SDS011;11281;52.194;21.006;2023-07-22T21:59:58;5.70;;;4.00;;
22223;SDS011;11281;52.194;21.006;2023-07-22T22:03:59;3.88;;;2.95;;
22223;SDS011;11281;52.194;21.006;2023-07-22T22:08:01;4.93;;;3.25;;
22223;SDS011;11281;52.194;21.006;2023-07-22T22:12:03;7.43;;;4.18;;
22223;SDS011;11281;52.194;21.006;2023-07-22T22:16:05;4.22;;;3.58;;
22223;SDS011;11281;52.194;21.006;2023-07-22T22:20:06;6.97;;;3.75;;
22223;SDS011;11281;52.194;21.006;2023-07-22T22:24:08;6.97;;;3.83;;
22223;SDS011;11281;52.194;21.006;2023-07-22T22:28:10;4.78;;;3.20;;
22223;SDS011;11281;52.194;21.006;2023-07-22T22:32:11;6.40;;;3.63;;
22223;SDS011;11281;52.194;21.006;2023-07-22T22:36:13;5.43;;;3.63;;
22223;SDS011;11281;52.194;21.006;2023-07-22T22:40:15;6.10;;;3.70;;
22223;SDS011;11281;52.194;21.006;2023-07-22T22:44:17;6.13;;;3.90;;
22223;SDS011;11281;52.194;21.006;2023-07-22T22:48:19;5.60;;;3.35;;
22223;SDS011;11281;52.194;21.006;2023-07-22T22:52:21;5.88;;;4.03;;
22223;SDS011;11281;52.194;21.006;2023-07-22T22:56:22;7.53;;;4.22;;
22223;SDS011;11281;52.194;21.006;2023-07-22T23:00:25;7.20;;;3.72;;
22223;SDS011;11281;52.194;21.006;2023-07-22T23:04:27;7.40;;;4.18;;
22223;SDS011;11281;52.194;21.006;2023-07-22T23:08:29;3.75;;;3.33;;
22223;SDS011;11281;52.194;21.006;2023-07-22T23:12:31;4.40;;;3.25;;
22223;SDS011;11281;52.194;21.006;2023-07-22T23:16:37;5.72;;;3.40;;
22223;SDS011;11281;52.194;21.006;2023-07-22T23:20:39;3.42;;;3.10;;
22223;SDS011;11281;52.194;21.006;2023-07-22T23:24:41;6.40;;;3.75;;
22223;SDS011;11281;52.194;21.006;2023-07-22T23:28:43;4.28;;;3.03;;
22223;SDS011;11281;52.194;21.006;2023-07-22T23:32:44;6.22;;;4.25;;
22223;SDS011;11281;52.194;21.006;2023-07-22T23:36:46;5.18;;;3.50;;
22223;SDS011;11281;52.194;21.006;2023-07-22T23:40:49;5.97;;;3.60;;
22223;SDS011;11281;52.194;21.006;2023-07-22T23:44:52;6.93;;;3.90;;
22223;SDS011;11281;52.194;21.006;2023-07-22T23:48:54;7.35;;;4.47;;
22223;SDS011;11281;52.194;21.006;2023-07-22T23:52:55;7.43;;;3.78;;
22223;SDS011;11281;52.194;21.006;2023-07-22T23:56:58;7.07;;;3.92;;
